Dades meteomassalio
Diari Summary for Marc 3, 2017 Units:  English    Metric   Both
« Previous Day
Next Day »
Diari Semanal Mensual Anual Personalitzat
  Maxima: Minima: Mijana:
Temperatura: TemperatureC °F 2.2 °F 9.9 °F
Rosada: DewpointC °F 1.0 °F 5.6 °F
Humitat: Humidity % 44 % 76 %
Velocitat del vent: WindSpeedKMH mph 0.0 mph 13.7 mph
Racha vent: WindSpeedGustKMH mph - -
Vent:- - SSE
Pressio: PressurehPa in 998.5 in -
Pluja: 20.1 in    
Historical Graphs
 
 
Tabular Data for Marc 3, 2017
Time Temperature Dew Point Pressure Wind Wind Speed Wind Gust Humidity Rainfall Rate (Hourly) solar Conditions
TemperatureC °F DewpointC °F PressurehPa in Calm     Humidity % HourlyPrecipMM in SolarRadiationWatts/m^2 W/m2 Conditions
00:01 7.1 °F 5.1 °F 1016.8 in Calm     87 % 0.0 in 0.0 W/m2 CLR
00:06 7.1 °F 5.1 °F 1016.8 in Calm     87 % 0.0 in 0.0 W/m2 CLR
00:11 6.9 °F 4.9 °F 1016.8 in Calm     87 % 0.0 in 0.0 W/m2 CLR
00:16 6.8 °F 4.8 °F 1016.8 in Calm     87 % 0.0 in 0.0 W/m2 CLR
00:21 6.7 °F 4.7 °F 1016.8 in Calm     87 % 0.0 in 0.0 W/m2 CLR
00:26 6.6 °F 4.8 °F 1016.8 in Calm     88 % 0.0 in 0.0 W/m2 CLR
00:31 6.5 °F 4.7 °F 1016.8 in Calm     88 % 0.0 in 0.0 W/m2 CLR
00:36 6.4 °F 4.6 °F 1016.8 in Calm     88 % 0.0 in 0.0 W/m2 CLR
00:41 6.3 °F 4.5 °F 1016.5 in Calm     88 % 0.0 in 0.0 W/m2 CLR
00:46 6.3 °F 4.4 °F 1016.5 in Calm     88 % 0.0 in 0.0 W/m2 CLR
00:51 6.2 °F 4.6 °F 1016.5 in Calm     89 % 0.0 in 0.0 W/m2 CLR
00:56 6.2 °F 4.5 °F 1016.5 in Calm     89 % 0.0 in 0.0 W/m2 CLR
01:01 6.1 °F 4.4 °F 1016.5 in Calm     89 % 0.0 in 0.0 W/m2 CLR
01:06 6.0 °F 4.3 °F 1016.5 in Calm     89 % 0.0 in 0.0 W/m2 CLR
01:11 6.0 °F 4.3 °F 1016.1 in Calm     89 % 0.0 in 0.0 W/m2 CLR
01:16 5.9 °F 4.2 °F 1016.1 in Calm     89 % 0.0 in 0.0 W/m2 CLR
01:21 5.8 °F 4.2 °F 1016.1 in Calm     89 % 0.0 in 0.0 W/m2 CLR
01:26 5.7 °F 4.1 °F 1016.1 in Calm     89 % 0.0 in 0.0 W/m2 CLR
01:31 5.7 °F 4.0 °F 1016.1 in Calm     89 % 0.0 in 0.0 W/m2 CLR
01:36 5.6 °F 3.9 °F 1015.8 in Calm     89 % 0.0 in 0.0 W/m2 CLR
01:41 5.4 °F 3.8 °F 1015.8 in Calm     89 % 0.0 in 0.0 W/m2 CLR
01:46 5.3 °F 3.7 °F 1015.8 in Calm     89 % 0.0 in 0.0 W/m2 CLR
01:51 5.3 °F 3.8 °F 1015.8 in Calm     90 % 0.0 in 0.0 W/m2 CLR
01:56 5.3 °F 3.8 °F 1015.5 in Calm     90 % 0.0 in 0.0 W/m2 CLR
02:01 5.3 °F 3.8 °F 1015.5 in Calm     90 % 0.0 in 0.0 W/m2 CLR
02:06 5.2 °F 3.7 °F 1015.5 in Calm     90 % 0.0 in 0.0 W/m2 CLR
02:11 5.1 °F 3.6 °F 1015.5 in Calm     90 % 0.0 in 0.0 W/m2 CLR
02:16 5.1 °F 3.6 °F 1015.5 in Calm     90 % 0.0 in 0.0 W/m2 CLR
02:21 4.9 °F 3.4 °F 1015.1 in Calm     90 % 0.0 in 0.0 W/m2 CLR
02:26 4.9 °F 3.4 °F 1015.1 in Calm     90 % 0.0 in 0.0 W/m2 CLR
02:31 4.8 °F 3.3 °F 1015.1 in Calm     90 % 0.0 in 0.0 W/m2 CLR
02:36 4.8 °F 3.3 °F 1015.1 in Calm     90 % 0.0 in 0.0 W/m2 CLR
02:41 4.7 °F 3.2 °F 1015.1 in Calm     90 % 0.0 in 0.0 W/m2 CLR
02:46 4.7 °F 3.2 °F 1014.8 in Calm     90 % 0.0 in 0.0 W/m2 CLR
02:51 4.6 °F 3.1 °F 1014.8 in Calm     90 % 0.0 in 0.0 W/m2 CLR
02:56 4.6 °F 3.1 °F 1014.8 in Calm     90 % 0.0 in 0.0 W/m2 CLR
03:01 4.6 °F 3.2 °F 1014.8 in Calm     91 % 0.0 in 0.0 W/m2 CLR
03:06 4.5 °F 3.0 °F 1014.8 in Calm     90 % 0.0 in 0.0 W/m2 CLR
03:11 4.4 °F 2.9 °F 1014.4 in Calm     90 % 0.0 in 0.0 W/m2 CLR
03:16 4.3 °F 2.8 °F 1014.4 in Calm     90 % 0.0 in 0.0 W/m2 CLR
03:21 4.2 °F 2.7 °F 1014.4 in Calm     90 % 0.0 in 0.0 W/m2 CLR
03:26 4.1 °F 2.6 °F 1014.4 in Calm     90 % 0.0 in 0.0 W/m2 CLR
03:31 4.0 °F 2.5 °F 1014.4 in Calm     90 % 0.0 in 0.0 W/m2 CLR
03:36 3.9 °F 2.4 °F 1014.4 in Calm     90 % 0.0 in 0.0 W/m2 CLR
03:41 3.9 °F 2.4 °F 1014.1 in Calm     90 % 0.0 in 0.0 W/m2 CLR
03:46 3.9 °F 2.6 °F 1014.1 in Calm     91 % 0.0 in 0.0 W/m2 CLR
03:51 3.8 °F 2.5 °F 1013.8 in Calm     91 % 0.0 in 0.0 W/m2 CLR
03:56 3.7 °F 2.4 °F 1014.1 in Calm     91 % 0.0 in 0.0 W/m2 CLR
04:01 3.7 °F 2.4 °F 1013.8 in Calm     91 % 0.0 in 0.0 W/m2 CLR
04:06 3.7 °F 2.3 °F 1013.8 in Calm     91 % 0.0 in 0.0 W/m2 CLR
04:11 3.6 °F 2.3 °F 1013.8 in Calm     91 % 0.0 in 0.0 W/m2 CLR
04:16 3.5 °F 2.2 °F 1013.4 in Calm     91 % 0.0 in 0.0 W/m2 CLR
04:21 3.4 °F 2.1 °F 1013.4 in Calm     91 % 0.0 in 0.0 W/m2 CLR
04:26 3.4 °F 2.1 °F 1013.4 in Calm     91 % 0.0 in 0.0 W/m2 CLR
04:31 3.5 °F 2.2 °F 1013.4 in Calm     91 % 0.0 in 0.0 W/m2 CLR
04:36 3.6 °F 2.2 °F 1013.4 in Calm     91 % 0.0 in 0.0 W/m2 CLR
04:41 3.6 °F 2.4 °F 1013.4 in Calm     92 % 0.0 in 0.0 W/m2 CLR
04:42 3.6 °F 2.4 °F 1013.4 in Calm     92 % 0.0 in 0.0 W/m2 CLR
04:47 3.6 °F 2.2 °F 1013.4 in Calm     91 % 0.0 in 0.0 W/m2 CLR
04:52 3.4 °F 2.1 °F 1013.1 in Calm     91 % 0.0 in 0.0 W/m2 CLR
04:57 3.3 °F 1.9 °F 1013.1 in Calm     91 % 0.0 in 0.0 W/m2 CLR
05:02 3.2 °F 1.8 °F 1012.8 in Calm     91 % 0.0 in 0.0 W/m2 CLR
05:07 3.1 °F 1.8 °F 1012.8 in Calm     91 % 0.0 in 0.0 W/m2 CLR
05:12 3.0 °F 1.7 °F 1012.8 in Calm     91 % 0.0 in 0.0 W/m2 CLR
05:17 2.9 °F 1.6 °F 1012.8 in Calm     91 % 0.0 in 0.0 W/m2 CLR
05:22 2.8 °F 1.5 °F 1012.8 in Calm     91 % 0.0 in 0.0 W/m2 CLR
05:27 2.9 °F 1.6 °F 1012.8 in Calm     91 % 0.0 in 0.0 W/m2 CLR
05:32 2.8 °F 1.5 °F 1012.8 in Calm     91 % 0.0 in 0.0 W/m2 CLR
05:37 2.9 °F 1.7 °F 1012.8 in Calm     92 % 0.0 in 0.0 W/m2 CLR
05:42 2.9 °F 1.7 °F 1012.4 in Calm     92 % 0.0 in 0.0 W/m2 CLR
05:47 2.8 °F 1.7 °F 1012.8 in Calm     92 % 0.0 in 0.0 W/m2 CLR
05:52 2.7 °F 1.6 °F 1012.8 in Calm     92 % 0.0 in 0.0 W/m2 CLR
05:57 2.7 °F 1.5 °F 1012.4 in Calm     92 % 0.0 in 0.0 W/m2 CLR
06:02 2.7 °F 1.6 °F 1012.4 in Calm     92 % 0.0 in 0.0 W/m2 CLR
06:08 2.8 °F 1.6 °F 1012.4 in Calm     92 % 0.0 in 0.0 W/m2 CLR
06:13 2.8 °F 1.6 °F 1012.4 in Calm     92 % 0.0 in 0.0 W/m2 CLR
06:18 2.8 °F 1.6 °F 1012.4 in Calm     92 % 0.0 in 0.0 W/m2 CLR
06:23 2.7 °F 1.5 °F 1012.4 in Calm     92 % 0.0 in 0.0 W/m2 CLR
06:28 2.6 °F 1.4 °F 1012.4 in Calm     92 % 0.0 in 0.0 W/m2 CLR
06:33 2.6 °F 1.4 °F 1012.4 in Calm     92 % 0.0 in 0.0 W/m2 CLR
06:38 2.7 °F 1.5 °F 1012.4 in Calm     92 % 0.0 in 0.0 W/m2 CLR
06:43 2.6 °F 1.4 °F 1012.4 in Calm     92 % 0.0 in 0.0 W/m2 CLR
06:48 2.4 °F 1.2 °F 1012.1 in Calm     92 % 0.0 in 0.0 W/m2 CLR
06:53 2.4 °F 1.2 °F 1012.1 in Calm     92 % 0.0 in 0.0 W/m2 CLR
06:54 2.4 °F 1.2 °F 1012.1 in Calm     92 % 0.0 in 0.0 W/m2 CLR
06:59 2.4 °F 1.3 °F 1012.1 in Calm     92 % 0.0 in 0.0 W/m2 CLR
07:04 2.5 °F 1.3 °F 1012.1 in Calm     92 % 0.0 in 0.0 W/m2 CLR
07:09 2.5 °F 1.3 °F 1012.1 in Calm     92 % 0.0 in 0.0 W/m2 CLR
07:14 2.4 °F 1.2 °F 1011.7 in Calm     92 % 0.0 in 0.0 W/m2 CLR
07:19 2.3 °F 1.2 °F 1011.7 in Calm     92 % 0.0 in 0.0 W/m2 CLR
07:24 2.3 °F 1.1 °F 1011.7 in Calm     92 % 0.0 in 0.0 W/m2 OVC
07:29 2.2 °F 1.1 °F 1011.7 in Calm     92 % 0.0 in 0.0 W/m2 OVC
07:34 2.2 °F 1.0 °F 1011.7 in Calm     92 % 0.0 in 7.0 W/m2 OVC
07:39 2.2 °F 1.1 °F 1012.1 in Calm     92 % 0.0 in 11.0 W/m2 BKN
07:44 2.3 °F 1.1 °F 1011.7 in Calm     92 % 0.0 in 12.0 W/m2 BKN
07:49 2.5 °F 1.5 °F 1011.7 in Calm     93 % 0.0 in 16.0 W/m2 BKN
07:54 2.7 °F 1.7 °F 1011.7 in Calm     93 % 0.0 in 19.0 W/m2 BKN
07:59 2.8 °F 1.8 °F 1011.7 in Calm     93 % 0.0 in 26.0 W/m2 BKN
08:04 3.0 °F 2.0 °F 1011.7 in Calm     93 % 0.0 in 30.0 W/m2 BKN
08:09 2.9 °F 1.8 °F 1011.7 in Calm     92 % 0.0 in 25.0 W/m2 BKN
08:15 3.0 °F 1.8 °F 1011.4 in Calm     92 % 0.0 in 28.0 W/m2 BKN
08:20 3.0 °F 1.8 °F 1011.4 in Calm     92 % 0.0 in 47.0 W/m2 SCT
08:25 3.2 °F 2.0 °F 1011.4 in Calm     92 % 0.0 in 39.0 W/m2 BKN
08:30 3.3 °F 2.2 °F 1011.4 in Calm     92 % 0.0 in 91.0 W/m2 FEW
08:35 3.6 °F 2.4 °F 1011.4 in Calm     92 % 0.0 in 120.0 W/m2 FEW
08:40 3.9 °F 2.7 °F 1011.1 in Calm     92 % 0.0 in 142.0 W/m2 CLR
08:45 4.3 °F 3.2 °F 1011.1 in Calm     92 % 0.0 in 155.0 W/m2 CLR
08:50 4.8 °F 3.7 °F 1011.1 in Calm     92 % 0.0 in 146.0 W/m2 CLR
08:55 5.4 °F 4.2 °F 1011.1 in Calm     92 % 0.0 in 195.0 W/m2 CLR
09:00 5.9 °F 4.6 °F 1011.1 in Calm     91 % 0.0 in 209.0 W/m2 CLR
09:05 6.2 °F 4.6 °F 1010.7 in Calm     89 % 0.0 in 221.0 W/m2 CLR
09:10 6.6 °F 4.9 °F 1010.7 in Calm     89 % 0.0 in 241.0 W/m2 CLR
09:15 7.3 °F 5.9 °F 1010.7 in Calm     91 % 0.0 in 257.0 W/m2 CLR
09:20 8.2 °F 6.8 °F 1010.4 in Calm     91 % 0.0 in 265.0 W/m2 CLR
09:25 9.2 °F 7.7 °F 1010.4 in Calm     90 % 0.0 in 285.0 W/m2 CLR
09:30 10.3 °F 8.1 °F 1010.4 in Calm     86 % 0.0 in 294.0 W/m2 CLR
09:35 11.0 °F 8.2 °F 1010.0 in ESE 6.4 mph 6.4 mph 83 % 0.0 in 315.0 W/m2 CLR
09:40 11.6 °F 8.6 °F 1010.0 in ESE 5.6 mph 5.6 mph 82 % 0.0 in 329.0 W/m2 CLR
09:45 12.2 °F 9.1 °F 1010.0 in SE 13.0 mph 13.0 mph 81 % 0.0 in 341.0 W/m2 CLR
09:50 12.8 °F 9.3 °F 1010.0 in SE 16.7 mph 16.7 mph 79 % 0.0 in 357.0 W/m2 CLR
09:55 13.4 °F 9.4 °F 1010.0 in ESE 18.5 mph 18.5 mph 77 % 0.0 in 373.0 W/m2 CLR
10:00 13.8 °F 9.6 °F 1009.7 in SE 12.9 mph 12.9 mph 76 % 0.0 in 387.0 W/m2 CLR
10:05 14.1 °F 9.6 °F 1009.7 in ESE 13.0 mph 13.0 mph 74 % 0.0 in 403.0 W/m2 CLR
10:10 14.3 °F 9.6 °F 1009.7 in East 24.1 mph 24.1 mph 73 % 0.0 in 417.0 W/m2 CLR
10:15 14.2 °F 9.4 °F 1009.7 in SSE 27.4 mph 27.4 mph 73 % 0.0 in 420.0 W/m2 CLR
10:20 13.9 °F 9.3 °F 1009.4 in ESE 33.3 mph 33.3 mph 74 % 0.0 in 441.0 W/m2 CLR
10:25 13.9 °F 9.6 °F 1009.4 in SE 31.5 mph 31.5 mph 75 % 0.0 in 450.0 W/m2 CLR
10:30 13.8 °F 9.4 °F 1009.4 in ESE 33.8 mph 33.8 mph 75 % 0.0 in 445.0 W/m2 CLR
10:35 13.8 °F 9.5 °F 1009.4 in SE 35.4 mph 35.4 mph 75 % 0.0 in 459.0 W/m2 CLR
10:40 13.8 °F 9.4 °F 1009.0 in SE 37.0 mph 37.0 mph 75 % 0.0 in 475.0 W/m2 CLR
10:45 13.8 °F 9.4 °F 1009.0 in SE 33.3 mph 33.3 mph 75 % 0.0 in 506.0 W/m2 CLR
10:50 13.7 °F 9.5 °F 1009.0 in SE 35.2 mph 35.2 mph 76 % 0.0 in 513.0 W/m2 CLR
10:55 13.7 °F 9.6 °F 1009.0 in ESE 35.2 mph 35.2 mph 76 % 0.0 in 527.0 W/m2 CLR
11:00 13.7 °F 9.4 °F 1009.0 in SE 31.5 mph 31.5 mph 75 % 0.0 in 555.0 W/m2 CLR
11:05 14.0 °F 9.6 °F 1008.7 in East 29.0 mph 29.0 mph 75 % 0.0 in 461.0 W/m2 CLR
11:10 14.1 °F 9.7 °F 1008.4 in ESE 24.1 mph 24.1 mph 75 % 0.0 in 459.0 W/m2 CLR
11:15 14.3 °F 9.6 °F 1008.4 in SSE 29.0 mph 29.0 mph 73 % 0.0 in 338.0 W/m2 CLR
11:20 14.8 °F 9.6 °F 1008.4 in SE 25.9 mph 25.9 mph 71 % 0.0 in 381.0 W/m2 CLR
11:25 15.0 °F 9.3 °F 1008.4 in SE 24.1 mph 24.1 mph 69 % 0.0 in 503.0 W/m2 CLR
11:30 15.5 °F 9.8 °F 1008.4 in SE 22.2 mph 22.2 mph 69 % 0.0 in 527.0 W/m2 CLR
11:35 15.7 °F 9.2 °F 1008.4 in SE 29.0 mph 29.0 mph 65 % 0.0 in 506.0 W/m2 CLR
11:40 15.6 °F 9.0 °F 1008.0 in South 33.3 mph 33.3 mph 65 % 0.0 in 466.0 W/m2 CLR
11:45 15.4 °F 9.1 °F 1008.0 in SE 24.1 mph 24.1 mph 66 % 0.0 in 582.0 W/m2 CLR
11:50 15.4 °F 9.3 °F 1008.0 in SSE 25.9 mph 25.9 mph 67 % 0.0 in 603.0 W/m2 CLR
11:55 15.6 °F 9.5 °F 1007.7 in SE 24.1 mph 24.1 mph 67 % 0.0 in 613.0 W/m2 CLR
12:00 15.9 °F 9.6 °F 1007.7 in SE 22.5 mph 22.5 mph 66 % 0.0 in 548.0 W/m2 CLR
12:05 16.2 °F 9.1 °F 1007.3 in SE 29.6 mph 29.6 mph 63 % 0.0 in 555.0 W/m2 CLR
12:10 16.3 °F 8.7 °F 1007.3 in SE 29.6 mph 29.6 mph 61 % 0.0 in 510.0 W/m2 CLR
12:15 16.3 °F 8.5 °F 1007.0 in SE 31.5 mph 31.5 mph 60 % 0.0 in 425.0 W/m2 CLR
12:20 16.1 °F 8.3 °F 1006.7 in SSE 32.2 mph 32.2 mph 60 % 0.0 in 424.0 W/m2 CLR
12:25 16.1 °F 8.6 °F 1006.3 in SE 33.3 mph 33.3 mph 61 % 0.0 in 582.0 W/m2 CLR
12:30 16.0 °F 8.2 °F 1006.3 in SE 42.6 mph 42.6 mph 60 % 0.0 in 468.0 W/m2 CLR
12:35 16.1 °F 8.1 °F 1006.3 in SE 33.3 mph 33.3 mph 59 % 0.0 in 374.0 W/m2 CLR
12:36 16.1 °F 8.1 °F 1006.0 in SSE 37.0 mph 37.0 mph 59 % 0.0 in 357.0 W/m2 CLR
12:41 15.9 °F 8.4 °F 1006.0 in SSE 27.8 mph 27.8 mph 61 % 0.0 in 441.0 W/m2 CLR
12:46 15.9 °F 8.6 °F 1005.6 in SE 25.9 mph 25.9 mph 62 % 0.0 in 485.0 W/m2 CLR
12:51 15.9 °F 8.4 °F 1005.6 in SE 31.5 mph 31.5 mph 61 % 0.0 in 503.0 W/m2 CLR
12:56 16.2 °F 8.4 °F 1005.3 in SE 27.8 mph 27.8 mph 60 % 0.0 in 613.0 W/m2 CLR
13:01 16.3 °F 8.2 °F 1005.0 in SE 27.8 mph 27.8 mph 59 % 0.0 in 429.0 W/m2 CLR
13:06 16.6 °F 8.3 °F 1005.0 in SE 20.4 mph 20.4 mph 58 % 0.0 in 652.0 W/m2 CLR
13:11 16.7 °F 8.2 °F 1004.6 in East 22.2 mph 22.2 mph 57 % 0.0 in 610.0 W/m2 CLR
13:16 17.0 °F 8.4 °F 1004.6 in SE 16.7 mph 16.7 mph 57 % 0.0 in 568.0 W/m2 CLR
13:21 17.4 °F 8.3 °F 1004.6 in SE 17.7 mph 17.7 mph 55 % 0.0 in 613.0 W/m2 CLR
13:26 17.6 °F 7.8 °F 1004.6 in SSE 22.2 mph 22.2 mph 53 % 0.0 in 605.0 W/m2 CLR
13:31 18.0 °F 7.7 °F 1004.3 in SSE 25.9 mph 25.9 mph 51 % 0.0 in 543.0 W/m2 CLR
13:36 18.3 °F 7.7 °F 1004.3 in South 20.4 mph 20.4 mph 50 % 0.0 in 520.0 W/m2 CLR
13:41 18.5 °F 6.9 °F 1004.3 in SSW 22.2 mph 22.2 mph 47 % 0.0 in 561.0 W/m2 CLR
13:46 18.4 °F 6.6 °F 1004.6 in SSW 29.6 mph 29.6 mph 46 % 0.0 in 461.0 W/m2 CLR
13:51 17.9 °F 5.4 °F 1004.6 in SSW 42.6 mph 42.6 mph 44 % 0.0 in 489.0 W/m2 CLR
13:56 17.7 °F 6.2 °F 1004.3 in South 20.4 mph 20.4 mph 47 % 0.0 in 452.0 W/m2 CLR
14:01 17.7 °F 5.3 °F 1003.9 in SSW 31.5 mph 31.5 mph 44 % 0.0 in 568.0 W/m2 CLR
14:06 17.6 °F 5.8 °F 1003.9 in SSW 27.8 mph 27.8 mph 46 % 0.0 in 538.0 W/m2 CLR
14:11 17.4 °F 5.3 °F 1003.6 in South 37.0 mph 37.0 mph 45 % 0.0 in 540.0 W/m2 CLR
14:16 17.2 °F 5.2 °F 1003.6 in SSW 42.6 mph 42.6 mph 45 % 0.0 in 548.0 W/m2 CLR
14:21 17.3 °F 5.2 °F 1003.6 in SSE 37.0 mph 37.0 mph 45 % 0.0 in 527.0 W/m2 CLR
14:26 17.3 °F 5.2 °F 1003.3 in SSW 40.7 mph 40.7 mph 45 % 0.0 in 520.0 W/m2 CLR
14:31 17.1 °F 5.4 °F 1003.3 in South 22.2 mph 22.2 mph 46 % 0.0 in 506.0 W/m2 CLR
14:36 17.3 °F 5.8 °F 1002.9 in SSE 20.4 mph 20.4 mph 47 % 0.0 in 552.0 W/m2 CLR
14:41 17.3 °F 5.9 °F 1002.9 in SE 22.2 mph 22.2 mph 47 % 0.0 in 550.0 W/m2 CLR
14:46 17.4 °F 5.7 °F 1002.9 in South 20.4 mph 20.4 mph 46 % 0.0 in 464.0 W/m2 CLR
14:51 17.2 °F 5.8 °F 1002.9 in SSE 25.9 mph 25.9 mph 47 % 0.0 in 487.0 W/m2 CLR
14:56 16.8 °F 7.4 °F 1002.9 in SE 25.9 mph 25.9 mph 54 % 0.0 in 490.0 W/m2 CLR
15:01 16.5 °F 7.2 °F 1002.6 in SE 20.4 mph 20.4 mph 54 % 0.0 in 490.0 W/m2 CLR
15:06 16.6 °F 7.5 °F 1002.6 in SSE 22.2 mph 22.2 mph 55 % 0.0 in 487.0 W/m2 CLR
15:11 16.3 °F 7.8 °F 1002.6 in ESE 29.6 mph 29.6 mph 57 % 0.0 in 434.0 W/m2 CLR
15:16 16.1 °F 7.8 °F 1002.6 in ESE 20.9 mph 20.9 mph 58 % 0.0 in 359.0 W/m2 CLR
15:21 15.9 °F 7.9 °F 1002.3 in East 16.1 mph 16.1 mph 59 % 0.0 in 399.0 W/m2 CLR
15:26 16.0 °F 7.7 °F 1002.3 in SE 14.8 mph 14.8 mph 58 % 0.0 in 343.0 W/m2 CLR
15:31 16.2 °F 7.9 °F 1002.6 in SSE 13.0 mph 13.0 mph 58 % 0.0 in 422.0 W/m2 CLR
15:36 16.9 °F 5.8 °F 1002.6 in SSW 29.0 mph 29.0 mph 48 % 0.0 in 455.0 W/m2 CLR
15:41 17.3 °F 4.9 °F 1002.6 in South 32.2 mph 32.2 mph 44 % 0.0 in 367.0 W/m2 CLR
15:47 17.1 °F 4.7 °F 1002.6 in SSW 27.4 mph 27.4 mph 44 % 0.0 in 262.0 W/m2 CLR
15:52 17.0 °F 5.3 °F 1002.6 in South 20.4 mph 20.4 mph 46 % 0.0 in 227.0 W/m2 CLR
15:57 16.7 °F 5.3 °F 1002.6 in South 31.5 mph 31.5 mph 47 % 0.0 in 209.0 W/m2 CLR
16:02 16.4 °F 5.4 °F 1002.6 in SSE 24.1 mph 24.1 mph 48 % 0.0 in 214.0 W/m2 CLR
16:07 16.3 °F 5.8 °F 1002.6 in SSE 27.8 mph 27.8 mph 50 % 0.0 in 223.0 W/m2 CLR
16:12 16.2 °F 5.7 °F 1002.6 in SSE 29.6 mph 29.6 mph 50 % 0.0 in 207.0 W/m2 CLR
16:17 16.1 °F 5.9 °F 1002.6 in South 29.6 mph 29.6 mph 51 % 0.0 in 218.0 W/m2 CLR
16:22 16.0 °F 5.8 °F 1002.6 in SE 33.8 mph 33.8 mph 51 % 0.0 in 229.0 W/m2 CLR
16:27 16.0 °F 6.2 °F 1002.3 in SE 24.1 mph 24.1 mph 52 % 0.0 in 227.0 W/m2 CLR
16:32 15.9 °F 6.1 °F 1002.3 in SSE 38.9 mph 38.9 mph 52 % 0.0 in 216.0 W/m2 CLR
16:37 16.1 °F 6.2 °F 1002.3 in SE 24.1 mph 24.1 mph 52 % 0.0 in 207.0 W/m2 CLR
16:38 16.1 °F 6.2 °F 1001.9 in SE 24.1 mph 24.1 mph 52 % 0.0 in 200.0 W/m2 CLR
16:43 16.1 °F 5.9 °F 1001.9 in SSE 25.9 mph 25.9 mph 51 % 0.0 in 179.0 W/m2 CLR
16:48 16.0 °F 5.8 °F 1001.6 in SSE 29.6 mph 29.6 mph 51 % 0.0 in 174.0 W/m2 CLR
16:53 15.9 °F 5.5 °F 1001.6 in South 37.0 mph 37.0 mph 50 % 0.0 in 130.0 W/m2 CLR
16:58 15.9 °F 5.4 °F 1001.6 in SSE 20.4 mph 20.4 mph 50 % 0.0 in 165.0 W/m2 CLR
17:03 15.9 °F 6.3 °F 1001.2 in SE 20.4 mph 20.4 mph 53 % 0.0 in 178.0 W/m2 CLR
17:08 15.7 °F 6.1 °F 1001.2 in ESE 18.5 mph 18.5 mph 53 % 0.0 in 199.0 W/m2 CLR
17:13 15.4 °F 6.7 °F 1000.9 in SE 27.8 mph 27.8 mph 56 % 0.0 in 171.0 W/m2 CLR
17:18 15.3 °F 7.1 °F 1000.9 in SE 16.7 mph 16.7 mph 58 % 0.0 in 134.0 W/m2 CLR
17:23 15.1 °F 6.8 °F 1000.9 in SE 25.7 mph 25.7 mph 58 % 0.0 in 107.0 W/m2 CLR
17:28 14.9 °F 6.9 °F 1000.9 in SSE 13.0 mph 13.0 mph 59 % 0.0 in 86.0 W/m2 CLR
17:33 14.6 °F 7.2 °F 1000.6 in SSE 31.5 mph 31.5 mph 61 % 0.0 in 70.0 W/m2 CLR
17:38 14.5 °F 7.1 °F 1000.2 in SSE 18.5 mph 18.5 mph 61 % 0.0 in 58.0 W/m2 FEW
17:43 14.4 °F 7.2 °F 1000.6 in South 18.5 mph 18.5 mph 62 % 0.0 in 47.0 W/m2 SCT
17:48 14.3 °F 7.3 °F 1000.6 in SSE 18.5 mph 18.5 mph 63 % 0.0 in 54.0 W/m2 SCT
17:53 14.3 °F 7.3 °F 1000.6 in SE 24.1 mph 24.1 mph 63 % 0.0 in 72.0 W/m2 FEW
17:58 14.2 °F 7.5 °F 1000.6 in SSE 18.5 mph 18.5 mph 64 % 0.0 in 76.0 W/m2 FEW
18:03 14.1 °F 7.3 °F 1000.2 in SE 27.8 mph 27.8 mph 64 % 0.0 in 65.0 W/m2 SCT
18:08 13.9 °F 7.4 °F 1000.2 in SE 19.3 mph 19.3 mph 65 % 0.0 in 44.0 W/m2 BKN
18:13 13.9 °F 7.6 °F 1000.2 in SE 18.5 mph 18.5 mph 66 % 0.0 in 42.0 W/m2 BKN
18:18 13.6 °F 7.8 °F 999.9 in SSE 18.5 mph 18.5 mph 68 % 0.0 in 30.0 W/m2 BKN
18:23 13.7 °F 7.2 °F 999.9 in South 31.5 mph 31.5 mph 65 % 0.0 in 18.0 W/m2 BKN
18:28 13.6 °F 7.4 °F 999.9 in South 29.6 mph 29.6 mph 66 % 0.0 in 12.0 W/m2 BKN
18:33 13.4 °F 7.4 °F 999.9 in SSE 27.4 mph 27.4 mph 67 % 0.0 in 7.0 W/m2 BKN
18:38 13.3 °F 7.3 °F 999.9 in SSE 18.5 mph 18.5 mph 67 % 0.0 in 5.0 W/m2 OVC
18:43 13.1 °F 7.3 °F 999.9 in SSE 18.5 mph 18.5 mph 68 % 0.0 in 0.0 W/m2 OVC
18:48 13.0 °F 7.2 °F 1000.2 in SSE 31.5 mph 31.5 mph 68 % 0.0 in 0.0 W/m2 OVC
18:53 12.9 °F 7.2 °F 999.9 in South 29.6 mph 29.6 mph 68 % 0.0 in 0.0 W/m2 OVC
18:58 12.9 °F 7.2 °F 1000.6 in SSE 31.5 mph 31.5 mph 68 % 0.0 in 0.0 W/m2 OVC
19:03 12.9 °F 7.2 °F 1000.6 in South 27.8 mph 27.8 mph 68 % 0.0 in 0.0 W/m2 CLR
19:08 12.9 °F 7.1 °F 1000.6 in South 31.5 mph 31.5 mph 68 % 0.0 in 0.0 W/m2 CLR
19:13 12.9 °F 6.9 °F 1000.6 in SSE 25.9 mph 25.9 mph 67 % 0.0 in 0.0 W/m2 CLR
19:18 12.9 °F 6.9 °F 1000.6 in South 27.8 mph 27.8 mph 67 % 0.0 in 0.0 W/m2 CLR
19:23 12.8 °F 7.1 °F 1000.9 in South 22.2 mph 22.2 mph 68 % 0.0 in 0.0 W/m2 CLR
19:28 12.8 °F 7.0 °F 1000.9 in South 24.1 mph 24.1 mph 68 % 0.0 in 0.0 W/m2 CLR
19:33 12.7 °F 7.2 °F 1000.9 in SSE 18.5 mph 18.5 mph 69 % 0.0 in 0.0 W/m2 CLR
19:38 12.5 °F 7.6 °F 1000.6 in ESE 25.9 mph 25.9 mph 72 % 0.0 in 0.0 W/m2 CLR
19:43 12.4 °F 7.9 °F 1000.2 in SE 24.1 mph 24.1 mph 74 % 0.0 in 0.0 W/m2 CLR
19:48 12.3 °F 7.8 °F 1000.2 in SE 11.3 mph 11.3 mph 74 % 0.0 in 0.0 W/m2 CLR
19:53 12.3 °F 7.8 °F 1000.2 in South 9.3 mph 9.3 mph 74 % 0.0 in 0.0 W/m2 CLR
19:58 12.3 °F 8.0 °F 999.5 in SE 20.4 mph 20.4 mph 75 % 0.0 in 0.0 W/m2 CLR
20:03 12.4 °F 8.1 °F 999.5 in ESE 8.0 mph 8.0 mph 75 % 0.0 in 0.0 W/m2 CLR
20:08 12.3 °F 8.2 °F 999.5 in East 16.7 mph 16.7 mph 76 % 0.0 in 0.0 W/m2 CLR
20:13 12.1 °F 8.4 °F 999.2 in ESE 11.1 mph 11.1 mph 78 % 0.0 in 0.0 W/m2 CLR
20:18 11.9 °F 8.4 °F 999.2 in East 9.3 mph 9.3 mph 79 % 0.0 in 0.0 W/m2 CLR
20:23 11.8 °F 8.5 °F 998.9 in East 3.7 mph   80 % 0.0 in 0.0 W/m2 CLR
20:28 11.7 °F 8.3 °F 999.2 in Calm     80 % 0.0 in 0.0 W/m2 CLR
20:33 11.6 °F 8.3 °F 999.2 in Calm     80 % 0.0 in 0.0 W/m2 CLR
20:38 11.6 °F 8.2 °F 999.2 in Calm     80 % 0.0 in 0.0 W/m2 CLR
20:43 11.6 °F 8.4 °F 999.5 in Calm     81 % 0.0 in 0.0 W/m2 CLR
20:48 11.6 °F 8.4 °F 999.9 in Calm     81 % 0.0 in 0.0 W/m2 CLR
20:54 11.7 °F 8.5 °F 999.9 in West 8.0 mph 8.0 mph 81 % 0.0 in 0.0 W/m2 CLR
20:59 11.7 °F 8.6 °F 999.9 in Calm     81 % 0.0 in 0.0 W/m2 CLR
21:04 11.8 °F 8.4 °F 999.9 in Calm     80 % 0.0 in 0.0 W/m2 CLR
21:09 11.8 °F 8.4 °F 999.5 in Calm     80 % 0.0 in 0.0 W/m2 CLR
21:14 11.8 °F 8.6 °F 999.2 in Calm     81 % 0.0 in 0.0 W/m2 CLR
21:19 11.8 °F 8.7 °F 999.2 in Calm     81 % 0.0 in 0.0 W/m2 CLR
21:24 11.9 °F 8.6 °F 999.2 in Calm     80 % 0.0 in 0.0 W/m2 CLR
21:29 11.8 °F 8.5 °F 999.2 in Calm     80 % 0.0 in 0.0 W/m2 CLR
21:34 11.8 °F 8.7 °F 999.2 in Calm     81 % 0.0 in 0.0 W/m2 CLR
21:39 11.8 °F 8.7 °F 998.9 in Calm     81 % 0.0 in 0.0 W/m2 CLR
21:44 11.8 °F 8.8 °F 998.9 in Calm     82 % 0.0 in 0.0 W/m2 CLR
21:49 11.7 °F 8.9 °F 998.5 in Calm     83 % 0.0 in 0.0 W/m2 CLR
21:54 11.5 °F 8.9 °F 998.9 in Calm     84 % 0.3 in 0.0 W/m2 RA
21:59 11.4 °F 8.8 °F 998.9 in Calm     84 % 0.3 in 0.0 W/m2 CLR
22:04 11.3 °F 9.0 °F 999.5 in WSW 8.0 mph 9.2 mph 86 % 1.0 in 0.0 W/m2 RA
22:09 10.8 °F 8.9 °F 1000.6 in WNW 38.6 mph 38.6 mph 88 % 2.8 in 0.0 W/m2 RA
22:14 8.6 °F 6.0 °F 1000.9 in WSW 57.4 mph 57.4 mph 84 % 8.9 in 0.0 W/m2 RA
22:19 7.7 °F 5.7 °F 1000.9 in WSW 57.4 mph 57.4 mph 87 % 12.2 in 0.0 W/m2 RA
22:24 7.3 °F 5.7 °F 1000.9 in WSW 30.6 mph 30.6 mph 89 % 13.7 in 0.0 W/m2 RA
22:29 7.3 °F 5.8 °F 1000.2 in West 27.8 mph 27.8 mph 90 % 15.2 in 0.0 W/m2 RA
22:34 7.3 °F 5.8 °F 999.9 in WSW 24.1 mph 24.1 mph 90 % 16.0 in 0.0 W/m2 RA
22:39 7.4 °F 5.8 °F 999.5 in WNW 16.7 mph 16.7 mph 90 % 16.5 in 0.0 W/m2 RA
22:44 7.5 °F 5.9 °F 998.9 in West 25.9 mph 25.9 mph 90 % 16.8 in 0.0 W/m2 RA
22:49 7.7 °F 5.9 °F 998.9 in West 29.6 mph 29.6 mph 89 % 16.8 in 0.0 W/m2 RA
22:54 7.7 °F 6.0 °F 998.9 in WNW 35.2 mph 35.2 mph 89 % 17.0 in 0.0 W/m2 RA
22:59 7.7 °F 5.8 °F 998.9 in WNW 31.5 mph 31.5 mph 88 % 17.5 in 0.0 W/m2 RA
23:04 7.7 °F 6.0 °F 998.5 in West 18.5 mph 18.5 mph 89 % 16.5 in 0.0 W/m2 RA
23:09 7.6 °F 5.9 °F 998.5 in WNW 13.0 mph 13.0 mph 89 % 14.2 in 0.0 W/m2 RA
23:14 7.6 °F 6.1 °F 998.5 in West 24.1 mph 24.1 mph 90 % 8.6 in 0.0 W/m2 RA
23:19 7.5 °F 5.9 °F 998.9 in West 18.5 mph 18.5 mph 90 % 6.1 in 0.0 W/m2 RA
23:24 7.4 °F 5.7 °F 999.2 in WSW 24.1 mph 24.1 mph 89 % 4.3 in 0.0 W/m2 CLR
23:29 7.3 °F 5.7 °F 999.5 in West 18.5 mph 18.5 mph 89 % 3.3 in 0.0 W/m2 RA
23:39 7.2 °F 5.5 °F 999.5 in WNW 31.5 mph 31.5 mph 89 % 2.8 in 0.0 W/m2 RA
23:44 7.1 °F 5.3 °F 999.5 in West 31.5 mph 31.5 mph 88 % 2.5 in 0.0 W/m2 RA
23:49 7.1 °F 5.2 °F 998.9 in WNW 40.7 mph 40.7 mph 88 % 2.5 in 0.0 W/m2 RA
23:54 7.0 °F 5.2 °F 998.9 in West 42.6 mph 42.6 mph 88 % 2.8 in 0.0 W/m2 RA
23:59 6.8 °F 5.0 °F 998.9 in WNW 32.2 mph 32.2 mph 88 % 2.3 in 0.0 W/m2
Lo Temps de Massalio
Compliments of Weather Underground - 1.25 mb